Gilbert Plains, Canada
Current Conditions -  °F | °C
As of 6:00 AM on Saturday 25 Oct 2014 (Local Time) from CYDN Reporting Station
Clear Clear  
Wind Chill: 32°   Ceiling: Unl
Heat Index: 39°   Visibility: 9mi
Dew Point: 30°   Wind: 13mph
Humidity: 70%   Direction: 270°W
Pressure: 29.93"   Gusts: NA
Location:  51.13°N, 100.48°W
Report Text: CYDN 251100Z AUTO 27011KT 9SM CLR 04/M01 A2993 RMK SLP144
Loading
Personal Weather Stations






























Interactive Weather Map
Tropical Storm Tracking
New forecast layout! Learn more

10-Day Weather Forecast

Advertisements
Track Severe Weather on mobile